createdAt,value
2022-08-07T00:02:36.952Z,1.00
2022-08-07T00:05:01.349Z,1.00
2022-08-07T00:07:40.284Z,1.00
2022-08-07T00:10:27.390Z,1.00
2022-08-07T00:13:00.607Z,1.00
2022-08-07T00:15:35.985Z,1.00
2022-08-07T00:18:19.810Z,1.00
2022-08-07T00:20:52.890Z,1.00
2022-08-07T00:23:22.104Z,1.00
2022-08-07T00:25:52.425Z,1.00
2022-08-07T00:28:31.567Z,1.00
2022-08-07T00:31:02.017Z,1.00
2022-08-07T00:33:33.872Z,1.00
2022-08-07T00:36:01.746Z,1.00
2022-08-07T00:38:33.191Z,1.00
2022-08-07T00:41:01.510Z,1.00
2022-08-07T00:44:01.274Z,1.00
2022-08-07T00:46:17.472Z,1.00
2022-08-07T00:48:45.746Z,1.00
2022-08-07T00:51:17.972Z,1.00
2022-08-07T00:53:50.800Z,1.00
2022-08-07T00:56:23.361Z,1.00
2022-08-07T00:58:58.901Z,1.00
2022-08-07T01:01:26.989Z,1.00
2022-08-07T01:04:00.126Z,1.00
2022-08-07T01:06:28.739Z,1.40
2022-08-07T01:08:58.606Z,7.60
2022-08-07T01:12:23.903Z,8.10
2022-08-07T01:14:16.854Z,5.30
2022-08-07T01:16:47.391Z,29.30
2022-08-07T01:19:18.785Z,79.80
2022-08-07T01:21:50.107Z,56.80
2022-08-07T01:24:21.855Z,83.50
2022-08-07T01:26:51.658Z,99.90
2022-08-07T01:29:20.536Z,99.90
2022-08-07T01:31:50.248Z,99.90
2022-08-07T01:34:19.117Z,99.90
2022-08-07T01:36:52.833Z,99.90
2022-08-07T01:39:26.812Z,99.90
2022-08-07T01:42:40.057Z,99.90
2022-08-07T01:44:55.830Z,99.90
2022-08-07T01:48:18.255Z,99.90
2022-08-07T01:50:11.590Z,99.90
2022-08-07T01:52:49.702Z,99.90
2022-08-07T01:55:24.199Z,99.90
2022-08-07T01:58:06.489Z,99.90
2022-08-07T02:00:45.404Z,99.90
2022-08-07T02:03:26.420Z,99.90
2022-08-07T02:06:09.002Z,99.90
2022-08-07T02:08:54.431Z,99.90
2022-08-07T02:11:57.891Z,99.90
2022-08-07T02:14:11.198Z,99.90
2022-08-07T02:16:59.777Z,99.90
2022-08-07T02:20:06.880Z,99.90
2022-08-07T02:22:20.045Z,99.90
2022-08-07T02:24:51.305Z,99.90
2022-08-07T02:27:21.053Z,99.90
2022-08-07T02:29:54.480Z,99.90
2022-08-07T02:32:26.919Z,99.90
2022-08-07T02:34:58.264Z,99.90
2022-08-07T02:37:27.016Z,1.00
2022-08-07T02:40:02.512Z,1.00
2022-08-07T02:42:45.806Z,1.00
2022-08-07T02:46:00.479Z,99.90
2022-08-07T02:48:03.025Z,99.90
2022-08-07T02:50:33.101Z,99.90
2022-08-07T02:53:06.294Z,99.90
2022-08-07T02:56:03.568Z,1.00
2022-08-07T02:58:27.196Z,1.00
2022-08-07T03:00:57.126Z,1.00
2022-08-07T03:03:26.091Z,1.00
2022-08-07T03:06:16.499Z,1.00
2022-08-07T03:08:53.533Z,1.00
2022-08-07T03:11:25.314Z,99.90
2022-08-07T03:13:57.634Z,1.00
2022-08-07T03:16:30.406Z,49.90
2022-08-07T03:18:59.028Z,67.30
2022-08-07T03:21:27.722Z,1.00
2022-08-07T03:24:19.835Z,1.00
2022-08-07T03:26:58.079Z,1.00
2022-08-07T03:29:29.122Z,99.90
2022-08-07T03:31:57.329Z,99.90
2022-08-07T03:34:28.144Z,1.00
2022-08-07T03:36:56.390Z,1.00
2022-08-07T03:39:59.025Z,99.90
2022-08-07T03:42:16.678Z,99.90
2022-08-07T03:44:53.142Z,99.90
2022-08-07T03:47:22.822Z,99.90
2022-08-07T03:49:52.230Z,99.90
2022-08-07T03:52:22.643Z,1.00
2022-08-07T03:54:57.158Z,99.90
2022-08-07T03:58:33.841Z,99.90
2022-08-07T04:00:18.039Z,1.00
2022-08-07T04:02:49.489Z,1.00
2022-08-07T04:05:20.410Z,1.00
2022-08-07T04:07:56.935Z,1.00
2022-08-07T04:10:25.655Z,1.00
2022-08-07T04:12:58.924Z,99.90
2022-08-07T04:15:27.825Z,1.00
2022-08-07T04:18:57.970Z,99.90
2022-08-07T04:20:54.555Z,1.00
2022-08-07T04:23:23.732Z,99.90
2022-08-07T04:26:11.007Z,99.90
2022-08-07T04:28:41.204Z,1.00
2022-08-07T04:31:10.320Z,1.00
2022-08-07T04:33:54.970Z,51.60
2022-08-07T04:36:26.259Z,1.00
2022-08-07T04:38:54.338Z,99.90
2022-08-07T04:41:22.786Z,18.80
2022-08-07T04:44:12.056Z,1.00
2022-08-07T04:46:59.387Z,1.00
2022-08-07T04:49:39.158Z,1.00
2022-08-07T04:52:12.904Z,99.90
2022-08-07T04:54:47.146Z,1.00
2022-08-07T04:58:15.942Z,99.90
2022-08-07T05:00:30.931Z,1.00
2022-08-07T05:03:03.899Z,1.00
2022-08-07T05:05:57.439Z,1.00
2022-08-07T05:08:59.242Z,99.90
2022-08-07T05:11:19.102Z,99.90
2022-08-07T05:14:55.792Z,91.50
2022-08-07T05:16:44.033Z,1.00
2022-08-07T05:19:14.463Z,99.90
2022-08-07T05:22:00.793Z,1.00
2022-08-07T05:24:39.417Z,1.00
2022-08-07T05:27:18.457Z,99.90
2022-08-07T05:29:57.601Z,99.90
2022-08-07T05:32:28.303Z,1.00
2022-08-07T05:34:57.052Z,1.00
2022-08-07T05:37:25.698Z,90.00
2022-08-07T05:40:18.442Z,99.90
2022-08-07T05:42:42.246Z,1.00
2022-08-07T05:45:46.071Z,99.90
2022-08-07T05:48:14.218Z,1.00
2022-08-07T05:50:43.188Z,93.40
2022-08-07T05:54:12.274Z,1.00
2022-08-07T05:56:02.052Z,99.90
2022-08-07T05:58:36.385Z,99.90
2022-08-07T06:01:10.327Z,99.90
2022-08-07T06:03:57.043Z,1.00
2022-08-07T06:06:29.703Z,99.90
2022-08-07T06:09:01.131Z,99.90
2022-08-07T06:11:33.540Z,99.90
2022-08-07T06:14:12.047Z,1.00
2022-08-07T06:16:50.347Z,1.00
2022-08-07T06:19:57.590Z,1.00
2022-08-07T06:22:20.518Z,1.00
2022-08-07T06:24:57.652Z,1.00
2022-08-07T06:28:00.391Z,1.00
2022-08-07T06:30:31.945Z,99.90
2022-08-07T06:33:03.821Z,72.00
2022-08-07T06:35:45.489Z,1.00
2022-08-07T06:38:20.031Z,99.90
2022-08-07T06:40:50.928Z,1.00
2022-08-07T06:43:22.485Z,99.90
2022-08-07T06:45:51.708Z,1.00
2022-08-07T06:48:25.269Z,99.90
2022-08-07T06:50:55.882Z,99.90
2022-08-07T06:54:11.778Z,99.90
2022-08-07T06:56:15.036Z,99.90
2022-08-07T07:00:12.817Z,1.00
2022-08-07T07:01:33.297Z,1.00
2022-08-07T07:04:28.383Z,1.00
2022-08-07T07:07:02.542Z,1.00
2022-08-07T07:09:39.053Z,1.00
2022-08-07T07:12:31.141Z,99.90
2022-08-07T07:15:03.269Z,99.90
2022-08-07T07:17:38.920Z,23.10
2022-08-07T07:20:09.566Z,1.00
2022-08-07T07:24:06.547Z,1.00
2022-08-07T07:26:34.177Z,1.00
2022-08-07T07:28:42.800Z,1.00
2022-08-07T07:31:08.986Z,99.90
2022-08-07T07:33:37.456Z,99.90
2022-08-07T07:36:13.142Z,99.90
2022-08-07T07:38:47.653Z,99.90
2022-08-07T07:41:16.960Z,99.90
2022-08-07T07:44:14.231Z,99.90
2022-08-07T07:46:55.876Z,99.90
2022-08-07T07:50:36.312Z,99.90
2022-08-07T07:52:13.176Z,99.90
2022-08-07T07:54:44.166Z,36.70
2022-08-07T07:57:21.106Z,1.00
2022-08-07T08:00:09.846Z,1.00
2022-08-07T08:02:38.995Z,1.00
2022-08-07T08:05:27.812Z,1.00
2022-08-07T08:08:35.291Z,1.00
2022-08-07T08:11:01.882Z,1.00
2022-08-07T08:13:33.332Z,1.00
2022-08-07T08:16:13.736Z,99.90
2022-08-07T08:18:46.374Z,99.90
2022-08-07T08:21:55.696Z,99.90
2022-08-07T08:24:45.840Z,99.90
2022-08-07T08:27:16.584Z,99.90
2022-08-07T08:29:54.616Z,99.90
2022-08-07T08:32:38.721Z,99.90
2022-08-07T08:35:09.670Z,99.90
2022-08-07T08:38:00.630Z,99.90
2022-08-07T08:40:29.054Z,99.90
2022-08-07T08:43:02.504Z,99.90
2022-08-07T08:45:41.941Z,99.90
2022-08-07T08:48:32.628Z,99.90
2022-08-07T08:51:14.624Z,78.00
2022-08-07T08:53:57.528Z,71.60
2022-08-07T08:56:29.961Z,49.50
2022-08-07T08:59:06.307Z,8.10
2022-08-07T09:01:39.993Z,1.00
2022-08-07T09:04:15.983Z,1.40
2022-08-07T09:06:49.190Z,1.00
2022-08-07T09:09:29.808Z,1.00
2022-08-07T09:12:20.078Z,1.00
2022-08-07T09:15:01.258Z,1.00
2022-08-07T09:18:01.480Z,1.00
2022-08-07T09:20:37.343Z,1.00
2022-08-07T09:24:31.603Z,1.00
2022-08-07T09:26:05.669Z,1.00
2022-08-07T09:30:01.889Z,1.00
2022-08-07T09:31:38.622Z,1.00
2022-08-07T09:34:09.451Z,1.00
2022-08-07T09:36:43.100Z,1.00
2022-08-07T09:39:53.800Z,1.00
2022-08-07T09:42:17.273Z,1.00
2022-08-07T09:47:52.543Z,1.00
2022-08-07T09:47:59.088Z,1.00
2022-08-07T09:50:34.263Z,1.00
2022-08-07T09:53:03.894Z,1.00
2022-08-07T09:56:03.509Z,1.00
2022-08-07T09:58:42.222Z,1.00
2022-08-07T10:01:51.172Z,1.00
2022-08-07T10:04:28.248Z,1.00
2022-08-07T10:07:25.981Z,1.00
2022-08-07T10:10:02.869Z,1.00
2022-08-07T10:12:52.630Z,1.00
2022-08-07T10:15:40.284Z,1.00
2022-08-07T10:18:26.395Z,1.00
2022-08-07T10:21:03.643Z,1.00
2022-08-07T10:24:05.280Z,1.00
2022-08-07T10:26:41.543Z,1.00
2022-08-07T10:29:30.691Z,1.00
2022-08-07T10:32:36.430Z,1.00
2022-08-07T10:35:09.151Z,1.00
2022-08-07T10:38:21.006Z,1.00
2022-08-07T10:40:44.064Z,1.00
2022-08-07T10:43:15.314Z,1.00
2022-08-07T10:45:58.355Z,1.00
2022-08-07T10:48:44.282Z,1.00
2022-08-07T10:51:39.274Z,1.00
2022-08-07T10:54:12.221Z,1.00
2022-08-07T10:56:44.338Z,1.00
2022-08-07T10:59:21.428Z,1.00
2022-08-07T11:02:05.023Z,1.00
2022-08-07T11:04:48.741Z,1.00
2022-08-07T11:07:56.347Z,1.00
2022-08-07T11:10:17.929Z,1.00
2022-08-07T11:13:01.673Z,1.00
2022-08-07T11:15:32.948Z,1.00
2022-08-07T11:18:04.576Z,1.00
2022-08-07T11:20:38.403Z,1.00
2022-08-07T11:23:13.451Z,1.00
2022-08-07T11:26:06.188Z,1.00
2022-08-07T11:28:37.123Z,1.00
2022-08-07T11:31:08.707Z,1.00
2022-08-07T11:33:58.483Z,1.00
2022-08-07T11:36:42.707Z,1.00
2022-08-07T11:39:19.549Z,1.00
2022-08-07T11:42:00.426Z,1.00
2022-08-07T11:44:37.315Z,1.00
2022-08-07T11:47:10.028Z,1.00
2022-08-07T11:50:31.586Z,1.00
2022-08-07T11:52:51.275Z,1.00
2022-08-07T11:56:11.974Z,1.00
2022-08-07T11:58:20.776Z,1.00
2022-08-07T12:01:05.237Z,1.00
2022-08-07T12:03:51.145Z,1.00
2022-08-07T12:06:37.532Z,1.00
2022-08-07T12:09:16.397Z,1.00
2022-08-07T12:12:10.744Z,1.00
2022-08-07T12:14:53.796Z,1.00
2022-08-07T12:17:34.147Z,1.00
2022-08-07T12:20:11.839Z,1.00
2022-08-07T12:22:58.286Z,1.00
2022-08-07T12:26:22.056Z,1.00
2022-08-07T12:28:44.866Z,1.00
2022-08-07T12:31:17.255Z,1.00
2022-08-07T12:33:56.701Z,1.00
2022-08-07T12:36:33.527Z,1.00
2022-08-07T12:39:41.130Z,1.00
2022-08-07T12:41:54.761Z,1.00
2022-08-07T12:44:25.079Z,1.00
2022-08-07T12:47:09.292Z,1.00
2022-08-07T12:49:44.234Z,1.00
2022-08-07T12:52:23.240Z,1.00
2022-08-07T12:55:03.769Z,1.00
2022-08-07T12:57:38.955Z,1.00
2022-08-07T13:00:32.498Z,1.00
2022-08-07T13:03:56.042Z,1.00
2022-08-07T13:06:27.863Z,1.00
2022-08-07T13:09:12.452Z,99.90
2022-08-07T13:12:02.123Z,99.90
2022-08-07T13:14:37.243Z,1.00
2022-08-07T13:17:21.329Z,99.90
2022-08-07T13:19:53.220Z,99.90
2022-08-07T13:22:31.186Z,99.90
2022-08-07T13:25:02.530Z,99.90
2022-08-07T13:28:05.818Z,99.90
2022-08-07T13:30:40.221Z,99.90
2022-08-07T13:34:14.523Z,99.90
2022-08-07T13:36:05.553Z,99.90
2022-08-07T13:38:39.621Z,99.90
2022-08-07T13:41:13.554Z,99.90
2022-08-07T13:43:43.074Z,99.90
2022-08-07T13:46:25.541Z,99.90
2022-08-07T13:48:59.621Z,99.90
2022-08-07T13:52:04.771Z,99.90
2022-08-07T13:54:23.672Z,99.90
2022-08-07T13:56:56.265Z,99.90
2022-08-07T13:59:31.295Z,99.90
2022-08-07T14:02:07.583Z,99.90
2022-08-07T14:04:49.023Z,99.90
2022-08-07T14:07:19.423Z,99.90
2022-08-07T14:10:02.546Z,99.90
2022-08-07T14:12:49.511Z,99.90
2022-08-07T14:15:36.529Z,99.90
2022-08-07T14:18:27.052Z,99.90
2022-08-07T14:20:55.969Z,99.90
2022-08-07T14:23:31.340Z,99.90
2022-08-07T14:26:28.106Z,99.90
2022-08-07T14:30:07.835Z,99.90
2022-08-07T14:31:59.465Z,99.90
2022-08-07T14:34:30.589Z,99.90
2022-08-07T14:37:01.930Z,99.90
2022-08-07T14:40:17.798Z,99.90
2022-08-07T14:42:24.357Z,99.90
2022-08-07T14:44:53.906Z,99.90
2022-08-07T14:47:32.080Z,99.90
2022-08-07T14:50:06.167Z,99.90
2022-08-07T14:52:39.605Z,99.90
2022-08-07T14:55:11.075Z,99.90
2022-08-07T14:57:55.088Z,99.90
2022-08-07T15:00:29.680Z,99.90
2022-08-07T15:02:59.887Z,99.90
2022-08-07T15:05:29.413Z,99.90
2022-08-07T15:07:59.323Z,99.90
2022-08-07T15:10:30.018Z,99.90
2022-08-07T15:13:06.161Z,99.90
2022-08-07T15:15:40.642Z,99.90
2022-08-07T15:18:14.420Z,99.90
2022-08-07T15:20:58.551Z,99.90
2022-08-07T15:25:02.277Z,99.90
2022-08-07T15:26:22.902Z,99.90
2022-08-07T15:30:09.798Z,99.90
2022-08-07T15:32:01.395Z,99.90
2022-08-07T15:34:34.570Z,99.90
2022-08-07T15:37:06.722Z,99.90
2022-08-07T15:39:57.899Z,99.90
2022-08-07T15:42:48.129Z,99.90
2022-08-07T15:45:55.509Z,99.90
2022-08-07T15:48:20.280Z,99.90
2022-08-07T15:53:52.333Z,99.90
2022-08-07T15:56:24.214Z,99.90
2022-08-07T15:58:54.992Z,99.90
2022-08-07T16:01:26.073Z,99.90
2022-08-07T16:04:14.596Z,99.90
2022-08-07T16:06:44.407Z,99.90
2022-08-07T16:09:22.366Z,99.90
2022-08-07T16:11:58.070Z,99.90
2022-08-07T16:14:33.930Z,99.90
2022-08-07T16:17:16.407Z,99.90
2022-08-07T16:20:33.393Z,99.90
2022-08-07T16:23:53.776Z,99.90
2022-08-07T16:26:30.757Z,99.90
2022-08-07T16:30:07.484Z,99.90
2022-08-07T16:32:00.720Z,99.90
2022-08-07T16:34:40.543Z,99.90
2022-08-07T16:38:05.316Z,99.90
2022-08-07T16:40:30.908Z,99.90
2022-08-07T16:43:07.461Z,99.90
2022-08-07T16:46:40.967Z,99.90
2022-08-07T16:50:28.508Z,99.90
2022-08-07T16:51:54.024Z,99.90
2022-08-07T16:54:38.026Z,99.90
2022-08-07T16:58:02.803Z,99.90
2022-08-07T17:00:30.096Z,99.90
2022-08-07T17:03:17.931Z,99.90
2022-08-07T17:06:18.901Z,99.90
2022-08-07T17:09:09.586Z,99.90
2022-08-07T17:12:01.798Z,99.90
2022-08-07T17:14:22.260Z,99.90
2022-08-07T17:16:55.958Z,99.90
2022-08-07T17:20:02.333Z,99.90
2022-08-07T17:22:16.273Z,99.90
2022-08-07T17:24:54.714Z,99.90
2022-08-07T17:27:32.415Z,99.90
2022-08-07T17:30:16.238Z,99.90
2022-08-07T17:33:03.018Z,99.90
2022-08-07T17:35:54.721Z,99.90
2022-08-07T17:38:32.024Z,99.90
2022-08-07T17:41:12.471Z,99.90
2022-08-07T17:44:02.286Z,99.90
2022-08-07T17:46:37.340Z,99.90
2022-08-07T17:49:11.300Z,99.90
2022-08-07T17:52:00.841Z,99.90
2022-08-07T17:54:54.102Z,99.90
2022-08-07T17:57:24.458Z,99.90
2022-08-07T17:59:53.959Z,99.90
2022-08-07T18:02:27.270Z,99.90
2022-08-07T18:04:57.808Z,99.90
2022-08-07T18:07:34.160Z,99.90
2022-08-07T18:10:10.323Z,1.00
2022-08-07T18:13:16.596Z,1.00
2022-08-07T18:16:03.603Z,1.00
2022-08-07T18:21:01.433Z,1.00
2022-08-07T18:21:51.685Z,1.00
2022-08-07T18:24:33.132Z,1.00
2022-08-07T18:27:17.372Z,1.00
2022-08-07T18:30:04.721Z,1.00
2022-08-07T18:32:54.971Z,99.90
2022-08-07T18:35:53.742Z,99.90
2022-08-07T18:38:55.627Z,99.90
2022-08-07T18:41:20.739Z,99.90
2022-08-07T18:43:50.768Z,99.90
2022-08-07T18:46:29.560Z,99.90
2022-08-07T18:50:31.092Z,1.00
2022-08-07T18:52:33.742Z,1.00
2022-08-07T18:54:49.795Z,1.00
2022-08-07T18:57:29.677Z,1.00
2022-08-07T19:00:04.203Z,1.00
2022-08-07T19:02:41.993Z,1.00
2022-08-07T19:05:16.243Z,1.00
2022-08-07T19:07:51.260Z,1.00
2022-08-07T19:10:31.560Z,1.00
2022-08-07T19:13:11.570Z,1.00
2022-08-07T19:16:05.585Z,1.00
2022-08-07T19:18:37.189Z,1.00
2022-08-07T19:21:51.331Z,1.00
2022-08-07T19:24:07.672Z,1.00
2022-08-07T19:27:08.932Z,1.00
2022-08-07T19:31:00.909Z,1.00
2022-08-07T19:32:26.527Z,1.00
2022-08-07T19:35:00.402Z,1.00
2022-08-07T19:37:55.277Z,1.00
2022-08-07T19:40:31.151Z,1.00
2022-08-07T19:43:01.520Z,1.00
2022-08-07T19:46:05.455Z,1.00
2022-08-07T19:48:24.110Z,1.00
2022-08-07T19:50:54.363Z,1.00
2022-08-07T19:54:31.422Z,1.00
2022-08-07T19:58:00.786Z,1.00
2022-08-07T19:59:02.593Z,1.00
2022-08-07T20:01:52.694Z,1.00
2022-08-07T20:04:31.269Z,1.00
2022-08-07T20:07:08.909Z,1.00
2022-08-07T20:10:37.726Z,1.00
2022-08-07T20:12:34.879Z,1.00
2022-08-07T20:15:04.468Z,1.00
2022-08-07T20:17:44.468Z,1.00
2022-08-07T20:20:20.497Z,1.00
2022-08-07T20:22:59.200Z,1.00
2022-08-07T20:25:30.402Z,1.00
2022-08-07T20:28:05.757Z,1.00
2022-08-07T20:30:34.493Z,1.00
2022-08-07T20:33:03.792Z,1.00
2022-08-07T20:35:34.307Z,1.00
2022-08-07T20:38:06.327Z,1.00
2022-08-07T20:40:41.208Z,1.00
2022-08-07T20:43:14.623Z,1.00
2022-08-07T20:46:25.958Z,1.00
2022-08-07T20:48:58.077Z,1.00
2022-08-07T20:51:30.146Z,1.00
2022-08-07T20:54:09.257Z,1.00
2022-08-07T20:56:45.944Z,1.00
2022-08-07T21:00:04.896Z,1.00
2022-08-07T21:02:31.501Z,1.00
2022-08-07T21:05:00.465Z,1.00
2022-08-07T21:07:29.480Z,1.00
2022-08-07T21:10:00.447Z,1.00
2022-08-07T21:12:30.992Z,1.00
2022-08-07T21:15:02.457Z,1.00
2022-08-07T21:18:01.772Z,1.00
2022-08-07T21:20:26.811Z,1.00
2022-08-07T21:23:08.500Z,1.00
2022-08-07T21:25:56.232Z,1.00
2022-08-07T21:28:48.360Z,1.00
2022-08-07T21:31:49.932Z,1.00
2022-08-07T21:34:11.794Z,1.00
2022-08-07T21:36:50.063Z,1.00
2022-08-07T21:39:47.529Z,1.00
2022-08-07T21:46:09.179Z,1.00
2022-08-07T21:48:01.740Z,1.00
2022-08-07T21:50:35.094Z,1.00
2022-08-07T21:53:08.354Z,1.00
2022-08-07T21:55:40.878Z,1.00
2022-08-07T21:58:12.111Z,1.00
2022-08-07T22:00:54.103Z,1.00
2022-08-07T22:03:30.929Z,1.00
2022-08-07T22:06:01.761Z,1.00
2022-08-07T22:08:33.621Z,1.00
2022-08-07T22:11:03.886Z,1.00
2022-08-07T22:13:52.607Z,1.00
2022-08-07T22:16:40.141Z,1.00
2022-08-07T22:19:23.514Z,1.00
2022-08-07T22:22:05.386Z,1.00
2022-08-07T22:24:50.184Z,1.00
2022-08-07T22:27:20.811Z,1.00
2022-08-07T22:30:04.412Z,1.00
2022-08-07T22:32:44.131Z,1.00
2022-08-07T22:35:13.881Z,1.00
2022-08-07T22:38:02.801Z,1.00
2022-08-07T22:40:35.202Z,1.00
2022-08-07T22:43:09.230Z,1.00
2022-08-07T22:46:21.113Z,1.00
2022-08-07T22:48:55.974Z,1.00
2022-08-07T22:51:54.308Z,1.00
2022-08-07T22:54:49.178Z,1.00
2022-08-07T22:57:37.221Z,1.00
2022-08-07T23:00:12.263Z,1.00
2022-08-07T23:02:48.494Z,1.00
2022-08-07T23:06:08.181Z,1.00
2022-08-07T23:08:24.224Z,1.00
2022-08-07T23:10:59.165Z,1.00
2022-08-07T23:14:08.926Z,1.00
2022-08-07T23:16:48.437Z,1.00
2022-08-07T23:19:51.410Z,1.00
2022-08-07T23:22:27.413Z,1.00
2022-08-07T23:25:01.723Z,1.00
2022-08-07T23:28:22.106Z,1.00
2022-08-07T23:30:39.357Z,1.00
2022-08-07T23:34:35.391Z,1.00
2022-08-07T23:36:28.706Z,1.00
2022-08-07T23:39:08.302Z,1.00
2022-08-07T23:42:04.152Z,1.00
2022-08-07T23:44:49.026Z,1.00
2022-08-07T23:47:42.274Z,1.00
2022-08-07T23:50:33.478Z,1.00
2022-08-07T23:53:17.529Z,1.00
2022-08-07T23:55:55.906Z,1.00
2022-08-07T23:58:34.804Z,1.00
